createdAt,value
2022-08-02T00:00:57.643Z,15.70
2022-08-02T00:01:57.642Z,15.80
2022-08-02T00:02:57.553Z,15.76
2022-08-02T00:03:57.505Z,15.73
2022-08-02T00:04:57.463Z,15.66
2022-08-02T00:05:57.417Z,15.70
2022-08-02T00:06:57.408Z,15.70
2022-08-02T00:07:57.325Z,15.67
2022-08-02T00:08:57.295Z,15.67
2022-08-02T00:09:57.234Z,15.70
2022-08-02T00:10:57.214Z,15.67
2022-08-02T00:11:57.163Z,15.70
2022-08-02T00:12:57.121Z,15.67
2022-08-02T00:13:57.078Z,15.67
2022-08-02T00:14:57.033Z,15.65
2022-08-02T00:15:56.964Z,15.70
2022-08-02T00:16:56.919Z,15.59
2022-08-02T00:17:56.883Z,15.60
2022-08-02T00:18:56.838Z,15.65
2022-08-02T00:19:56.783Z,15.57
2022-08-02T00:20:56.741Z,15.62
2022-08-02T00:21:56.701Z,15.62
2022-08-02T00:22:56.659Z,15.59
2022-08-02T00:24:27.874Z,15.66
2022-08-02T00:24:56.560Z,15.54
2022-08-02T00:25:56.513Z,15.55
2022-08-02T00:26:56.467Z,15.57
2022-08-02T00:27:56.422Z,15.67
2022-08-02T00:28:56.381Z,15.52
2022-08-02T00:29:56.333Z,15.55
2022-08-02T00:30:56.317Z,15.51
2022-08-02T00:31:56.242Z,15.57
2022-08-02T00:32:56.199Z,15.52
2022-08-02T00:34:27.175Z,15.48
2022-08-02T00:34:56.114Z,15.55
2022-08-02T00:35:56.060Z,15.51
2022-08-02T00:36:56.019Z,15.57
2022-08-02T00:37:55.972Z,15.51
2022-08-02T00:38:55.928Z,15.48
2022-08-02T00:39:55.881Z,15.55
2022-08-02T00:40:58.146Z,15.59
2022-08-02T00:41:55.793Z,15.48
2022-08-02T00:42:55.749Z,15.59
2022-08-02T00:43:55.699Z,15.47
2022-08-02T00:44:55.660Z,15.48
2022-08-02T00:46:02.278Z,15.48
2022-08-02T00:46:55.565Z,15.51
2022-08-02T00:47:55.518Z,15.54
2022-08-02T00:48:55.521Z,15.52
2022-08-02T00:49:55.428Z,15.52
2022-08-02T00:50:55.384Z,15.54
2022-08-02T00:51:55.338Z,15.55
2022-08-02T00:52:55.293Z,15.54
2022-08-02T00:53:55.246Z,15.48
2022-08-02T00:54:55.203Z,15.48
2022-08-02T00:55:55.155Z,15.51
2022-08-02T00:56:55.114Z,15.48
2022-08-02T00:57:55.068Z,15.48
2022-08-02T00:59:54.977Z,15.47
2022-08-02T01:00:54.933Z,15.48
2022-08-02T01:01:56.876Z,15.52
2022-08-02T01:02:54.840Z,15.52
2022-08-02T01:03:54.795Z,15.51
2022-08-02T01:04:54.752Z,15.55
2022-08-02T01:06:10.205Z,15.47
2022-08-02T01:06:54.659Z,15.54
2022-08-02T01:07:54.614Z,15.47
2022-08-02T01:08:54.568Z,15.52
2022-08-02T01:09:54.530Z,15.43
2022-08-02T01:10:54.478Z,15.50
2022-08-02T01:11:54.434Z,15.41
2022-08-02T01:12:54.389Z,15.45
2022-08-02T01:13:54.347Z,15.45
2022-08-02T01:14:54.295Z,15.41
2022-08-02T01:15:54.254Z,15.41
2022-08-02T01:16:54.205Z,15.43
2022-08-02T01:17:54.163Z,15.47
2022-08-02T01:18:54.115Z,15.36
2022-08-02T01:19:54.075Z,15.33
2022-08-02T01:20:54.026Z,15.41
2022-08-02T01:21:53.983Z,15.36
2022-08-02T01:23:02.522Z,15.44
2022-08-02T01:23:53.890Z,15.35
2022-08-02T01:24:53.844Z,15.37
2022-08-02T01:25:53.800Z,15.37
2022-08-02T01:26:53.754Z,15.37
2022-08-02T01:27:53.708Z,15.33
2022-08-02T01:28:53.665Z,15.37
2022-08-02T01:29:53.619Z,15.36
2022-08-02T01:30:53.573Z,15.36
2022-08-02T01:31:53.528Z,15.37
2022-08-02T01:32:53.486Z,15.50
2022-08-02T01:33:53.438Z,15.37
2022-08-02T01:34:53.393Z,15.41
2022-08-02T01:35:53.348Z,15.48
2022-08-02T01:36:53.303Z,15.39
2022-08-02T01:37:53.257Z,15.39
2022-08-02T01:38:53.212Z,15.36
2022-08-02T01:39:53.167Z,15.39
2022-08-02T01:40:53.125Z,15.35
2022-08-02T01:41:57.381Z,15.35
2022-08-02T01:42:53.030Z,15.33
2022-08-02T01:43:52.983Z,15.35
2022-08-02T01:44:52.943Z,15.35
2022-08-02T01:45:52.897Z,15.36
2022-08-02T01:46:52.849Z,15.44
2022-08-02T01:47:52.802Z,15.35
2022-08-02T01:48:52.861Z,15.41
2022-08-02T01:49:52.711Z,15.35
2022-08-02T01:50:52.669Z,15.32
2022-08-02T01:51:52.621Z,15.41
2022-08-02T01:52:53.161Z,15.33
2022-08-02T01:53:52.532Z,15.41
2022-08-02T01:54:52.487Z,15.41
2022-08-02T01:55:57.071Z,15.39
2022-08-02T01:56:52.397Z,15.44
2022-08-02T01:57:52.350Z,15.41
2022-08-02T01:58:52.306Z,15.35
2022-08-02T01:59:52.259Z,15.33
2022-08-02T02:00:52.261Z,15.32
2022-08-02T02:01:52.252Z,15.35
2022-08-02T02:02:52.124Z,15.33
2022-08-02T02:03:52.077Z,15.27
2022-08-02T02:04:52.034Z,15.32
2022-08-02T02:05:51.987Z,15.29
2022-08-02T02:06:51.943Z,15.26
2022-08-02T02:07:51.896Z,15.22
2022-08-02T02:08:51.856Z,15.23
2022-08-02T02:09:51.810Z,15.17
2022-08-02T02:10:51.760Z,15.17
2022-08-02T02:12:11.834Z,15.23
2022-08-02T02:12:51.671Z,15.23
2022-08-02T02:13:51.625Z,15.19
2022-08-02T02:14:52.291Z,15.25
2022-08-02T02:15:51.533Z,15.12
2022-08-02T02:16:51.493Z,15.17
2022-08-02T02:18:10.976Z,15.17
2022-08-02T02:18:51.398Z,15.11
2022-08-02T02:19:51.354Z,15.08
2022-08-02T02:20:51.307Z,15.12
2022-08-02T02:21:51.261Z,15.17
2022-08-02T02:22:51.229Z,15.17
2022-08-02T02:23:51.172Z,15.04
2022-08-02T02:24:51.127Z,15.12
2022-08-02T02:25:51.079Z,15.04
2022-08-02T02:26:52.396Z,15.00
2022-08-02T02:27:50.990Z,15.00
2022-08-02T02:28:50.947Z,14.99
2022-08-02T02:29:50.898Z,15.00
2022-08-02T02:30:50.854Z,15.00
2022-08-02T02:31:50.807Z,14.99
2022-08-02T02:32:50.767Z,15.04
2022-08-02T02:33:50.718Z,15.05
2022-08-02T02:34:50.673Z,14.97
2022-08-02T02:35:50.625Z,14.96
2022-08-02T02:36:50.581Z,15.02
2022-08-02T02:37:50.536Z,14.99
2022-08-02T02:38:50.492Z,15.04
2022-08-02T02:39:50.443Z,14.96
2022-08-02T02:40:50.403Z,14.93
2022-08-02T02:41:50.356Z,14.93
2022-08-02T02:42:50.308Z,14.92
2022-08-02T02:43:50.262Z,14.89
2022-08-02T02:44:50.219Z,14.87
2022-08-02T02:45:50.172Z,14.89
2022-08-02T02:46:50.126Z,14.86
2022-08-02T02:47:50.079Z,14.82
2022-08-02T02:48:50.099Z,14.78
2022-08-02T02:49:49.989Z,14.85
2022-08-02T02:50:49.945Z,14.78
2022-08-02T02:51:49.897Z,14.77
2022-08-02T02:52:49.854Z,14.77
2022-08-02T02:54:30.784Z,14.73
2022-08-02T02:54:49.762Z,14.73
2022-08-02T02:56:02.191Z,14.71
2022-08-02T02:56:49.670Z,14.73
2022-08-02T02:57:49.625Z,14.81
2022-08-02T02:58:49.580Z,14.86
2022-08-02T02:59:50.056Z,14.87
2022-08-02T03:00:49.516Z,14.82
2022-08-02T03:01:55.760Z,14.81
2022-08-02T03:02:49.399Z,14.79
2022-08-02T03:03:49.350Z,14.79
2022-08-02T03:04:55.940Z,14.82
2022-08-02T03:05:49.260Z,14.73
2022-08-02T03:06:49.214Z,14.68
2022-08-02T03:07:49.168Z,14.81
2022-08-02T03:08:49.124Z,14.77
2022-08-02T03:09:54.181Z,14.74
2022-08-02T03:10:49.032Z,14.73
2022-08-02T03:11:48.987Z,14.63
2022-08-02T03:12:48.944Z,14.68
2022-08-02T03:13:48.898Z,14.70
2022-08-02T03:14:49.372Z,14.77
2022-08-02T03:15:48.804Z,14.77
2022-08-02T03:16:48.761Z,14.66
2022-08-02T03:17:48.713Z,14.68
2022-08-02T03:18:48.667Z,14.63
2022-08-02T03:19:48.622Z,14.63
2022-08-02T03:20:48.577Z,14.61
2022-08-02T03:21:48.531Z,14.62
2022-08-02T03:22:48.484Z,14.55
2022-08-02T03:23:48.437Z,14.61
2022-08-02T03:24:48.394Z,14.53
2022-08-02T03:25:48.348Z,14.58
2022-08-02T03:26:48.304Z,14.48
2022-08-02T03:27:48.258Z,14.51
2022-08-02T03:28:48.213Z,14.52
2022-08-02T03:29:48.166Z,14.43
2022-08-02T03:30:48.120Z,14.49
2022-08-02T03:31:48.073Z,14.43
2022-08-02T03:32:48.037Z,14.40
2022-08-02T03:33:47.985Z,14.43
2022-08-02T03:34:47.938Z,14.52
2022-08-02T03:35:47.892Z,14.45
2022-08-02T03:37:47.802Z,14.51
2022-08-02T03:39:52.685Z,14.44
2022-08-02T03:40:47.665Z,14.43
2022-08-02T03:41:47.620Z,14.49
2022-08-02T03:42:47.572Z,14.38
2022-08-02T03:43:47.528Z,14.49
2022-08-02T03:44:47.485Z,14.45
2022-08-02T03:47:14.233Z,14.48
2022-08-02T03:48:31.804Z,14.44
2022-08-02T03:49:14.185Z,14.48
2022-08-02T03:50:14.092Z,14.48
2022-08-02T03:51:14.051Z,14.49
2022-08-02T03:52:14.294Z,14.51
2022-08-02T03:53:20.039Z,14.52
2022-08-02T03:54:13.913Z,14.43
2022-08-02T03:55:13.867Z,14.55
2022-08-02T03:56:13.821Z,14.38
2022-08-02T03:57:13.777Z,14.51
2022-08-02T03:58:13.728Z,14.38
2022-08-02T03:59:13.685Z,14.48
2022-08-02T04:00:13.638Z,14.43
2022-08-02T04:01:13.642Z,14.37
2022-08-02T04:02:13.923Z,14.43
2022-08-02T04:03:13.510Z,14.41
2022-08-02T04:04:13.460Z,14.38
2022-08-02T04:05:13.408Z,14.41
2022-08-02T04:06:13.363Z,14.37
2022-08-02T04:07:13.318Z,14.43
2022-08-02T04:08:35.874Z,14.36
2022-08-02T04:09:13.227Z,14.41
2022-08-02T04:10:13.182Z,14.40
2022-08-02T04:11:13.143Z,14.37
2022-08-02T04:12:13.428Z,14.40
2022-08-02T04:13:13.048Z,14.38
2022-08-02T04:14:12.998Z,14.37
2022-08-02T04:15:12.954Z,14.43
2022-08-02T04:16:12.905Z,14.41
2022-08-02T04:17:12.861Z,14.43
2022-08-02T04:18:12.816Z,14.38
2022-08-02T04:19:14.911Z,14.38
2022-08-02T04:20:12.722Z,14.38
2022-08-02T04:21:12.677Z,14.37
2022-08-02T04:22:13.000Z,14.43
2022-08-02T04:23:12.611Z,14.52
2022-08-02T04:24:12.539Z,14.49
2022-08-02T04:25:17.190Z,14.48
2022-08-02T04:26:12.450Z,14.41
2022-08-02T04:27:48.870Z,14.48
2022-08-02T04:28:17.613Z,14.49
2022-08-02T04:29:12.313Z,14.36
2022-08-02T04:30:12.266Z,14.52
2022-08-02T04:31:12.220Z,14.49
2022-08-02T04:32:12.484Z,14.53
2022-08-02T04:33:12.130Z,14.45
2022-08-02T04:34:15.066Z,14.52
2022-08-02T04:35:19.080Z,14.48
2022-08-02T04:36:11.994Z,14.51
2022-08-02T04:37:11.946Z,14.41
2022-08-02T04:38:11.903Z,14.43
2022-08-02T04:39:11.856Z,14.43
2022-08-02T04:40:11.808Z,14.51
2022-08-02T04:41:11.766Z,14.45
2022-08-02T04:42:11.933Z,14.56
2022-08-02T04:43:11.672Z,14.45
2022-08-02T04:44:11.653Z,14.48
2022-08-02T04:45:11.580Z,14.48
2022-08-02T04:46:11.535Z,14.52
2022-08-02T04:47:11.489Z,14.51
2022-08-02T04:48:11.445Z,14.52
2022-08-02T04:49:11.495Z,14.63
2022-08-02T04:50:11.350Z,14.51
2022-08-02T04:51:11.307Z,14.59
2022-08-02T04:52:11.467Z,14.59
2022-08-02T04:53:11.214Z,14.62
2022-08-02T04:54:11.181Z,14.71
2022-08-02T04:55:11.123Z,14.52
2022-08-02T04:56:11.077Z,14.63
2022-08-02T04:58:37.442Z,14.67
2022-08-02T04:59:10.941Z,14.74
2022-08-02T05:00:10.895Z,14.71
2022-08-02T05:01:10.920Z,14.74
2022-08-02T05:02:11.056Z,14.78
2022-08-02T05:03:10.760Z,14.77
2022-08-02T05:04:10.713Z,14.81
2022-08-02T05:05:10.674Z,14.79
2022-08-02T05:06:19.490Z,14.77
2022-08-02T05:07:10.575Z,14.85
2022-08-02T05:08:10.531Z,14.70
2022-08-02T05:09:10.487Z,14.79
2022-08-02T05:10:10.441Z,14.74
2022-08-02T05:11:10.393Z,14.78
2022-08-02T05:12:10.692Z,14.79
2022-08-02T05:13:10.301Z,14.87
2022-08-02T05:14:10.258Z,14.89
2022-08-02T05:15:12.588Z,14.90
2022-08-02T05:16:10.164Z,14.94
2022-08-02T05:17:10.119Z,14.96
2022-08-02T05:18:10.074Z,14.99
2022-08-02T05:19:10.027Z,14.97
2022-08-02T05:20:10.010Z,14.97
2022-08-02T05:21:09.939Z,15.07
2022-08-02T05:22:10.149Z,15.11
2022-08-02T05:23:09.845Z,15.12
2022-08-02T05:24:09.800Z,15.15
2022-08-02T05:25:09.754Z,15.14
2022-08-02T05:26:09.710Z,15.18
2022-08-02T05:27:16.521Z,15.22
2022-08-02T05:28:11.720Z,15.23
2022-08-02T05:29:09.579Z,15.33
2022-08-02T05:30:09.530Z,15.36
2022-08-02T05:31:12.525Z,15.37
2022-08-02T05:32:09.725Z,15.45
2022-08-02T05:33:09.390Z,15.52
2022-08-02T05:34:11.988Z,15.59
2022-08-02T05:35:09.299Z,15.54
2022-08-02T05:36:09.463Z,15.62
2022-08-02T05:37:10.039Z,15.59
2022-08-02T05:38:10.123Z,15.62
2022-08-02T05:39:10.789Z,15.70
2022-08-02T05:40:12.887Z,15.63
2022-08-02T05:41:09.028Z,15.76
2022-08-02T05:42:09.372Z,15.72
2022-08-02T05:43:08.938Z,15.76
2022-08-02T05:44:08.892Z,15.76
2022-08-02T05:45:08.846Z,15.83
2022-08-02T05:46:08.803Z,15.94
2022-08-02T05:47:08.756Z,15.88
2022-08-02T05:48:08.712Z,16.05
2022-08-02T05:49:08.706Z,16.03
2022-08-02T05:50:08.624Z,16.17
2022-08-02T05:51:08.578Z,16.12
2022-08-02T05:52:08.932Z,16.12
2022-08-02T05:53:08.484Z,16.21
2022-08-02T05:54:08.441Z,16.31
2022-08-02T05:55:09.733Z,16.25
2022-08-02T05:56:08.724Z,16.26
2022-08-02T05:57:08.307Z,16.31
2022-08-02T05:58:08.269Z,16.41
2022-08-02T05:59:08.218Z,16.46
2022-08-02T06:00:08.171Z,16.47
2022-08-02T06:01:08.127Z,16.50
2022-08-02T06:02:08.206Z,16.59
2022-08-02T06:03:08.036Z,16.69
2022-08-02T06:04:07.995Z,16.73
2022-08-02T06:05:07.947Z,16.83
2022-08-02T06:06:07.901Z,16.83
2022-08-02T06:07:07.856Z,16.84
2022-08-02T06:08:07.815Z,16.87
2022-08-02T06:09:07.764Z,16.84
2022-08-02T06:10:07.723Z,16.95
2022-08-02T06:11:07.899Z,17.05
2022-08-02T06:12:07.682Z,17.12
2022-08-02T06:13:07.590Z,17.05
2022-08-02T06:14:07.544Z,17.10
2022-08-02T06:15:07.495Z,17.20
2022-08-02T06:16:07.497Z,17.22
2022-08-02T06:17:07.475Z,17.28
2022-08-02T06:18:07.396Z,17.30
2022-08-02T06:19:07.522Z,17.38
2022-08-02T06:20:07.277Z,17.41
2022-08-02T06:22:31.550Z,17.50
2022-08-02T06:22:41.895Z,17.46
2022-08-02T06:23:10.752Z,17.57
2022-08-02T06:24:07.096Z,17.49
2022-08-02T06:25:47.884Z,17.65
2022-08-02T06:26:07.008Z,17.71
2022-08-02T06:27:07.020Z,17.76
2022-08-02T06:28:10.491Z,17.73
2022-08-02T06:29:06.875Z,17.87
2022-08-02T06:30:06.832Z,17.80
2022-08-02T06:31:06.815Z,17.93
2022-08-02T06:32:06.758Z,18.05
2022-08-02T06:33:06.715Z,18.09
2022-08-02T06:34:06.669Z,18.09
2022-08-02T06:35:06.612Z,18.30
2022-08-02T06:36:06.563Z,18.26
2022-08-02T06:37:06.517Z,18.28
2022-08-02T06:38:06.475Z,18.37
2022-08-02T06:39:06.432Z,18.46
2022-08-02T06:40:06.387Z,18.42
2022-08-02T06:41:06.340Z,18.48
2022-08-02T06:42:06.300Z,18.57
2022-08-02T06:43:06.253Z,18.71
2022-08-02T06:44:33.834Z,18.67
2022-08-02T06:45:06.165Z,18.70
2022-08-02T06:47:09.230Z,18.85
2022-08-02T06:47:10.873Z,18.86
2022-08-02T06:48:06.035Z,18.98
2022-08-02T06:49:06.036Z,19.09
2022-08-02T06:50:06.094Z,19.08
2022-08-02T06:51:05.901Z,19.17
2022-08-02T06:52:05.858Z,19.27
2022-08-02T06:53:05.814Z,19.34
2022-08-02T06:54:05.770Z,19.39
2022-08-02T06:55:05.726Z,19.41
2022-08-02T06:56:07.193Z,19.52
2022-08-02T06:57:05.639Z,19.49
2022-08-02T06:58:05.597Z,19.56
2022-08-02T06:59:06.194Z,19.55
2022-08-02T07:00:05.514Z,19.67
2022-08-02T07:01:05.510Z,19.64
2022-08-02T07:02:05.470Z,19.89
2022-08-02T07:03:05.384Z,19.77
2022-08-02T07:04:05.335Z,19.85
2022-08-02T07:05:05.290Z,19.97
2022-08-02T07:06:05.247Z,19.99
2022-08-02T07:07:05.429Z,20.07
2022-08-02T07:08:05.162Z,20.08
2022-08-02T07:09:21.927Z,20.22
2022-08-02T07:10:05.071Z,20.21
2022-08-02T07:11:05.028Z,20.18
2022-08-02T07:12:04.986Z,20.29
2022-08-02T07:13:04.957Z,20.33
2022-08-02T07:14:04.898Z,20.39
2022-08-02T07:15:04.853Z,20.42
2022-08-02T07:16:04.812Z,20.40
2022-08-02T07:17:04.769Z,20.59
2022-08-02T07:18:04.728Z,20.53
2022-08-02T07:19:04.679Z,20.70
2022-08-02T07:20:04.638Z,20.73
2022-08-02T07:21:04.593Z,20.77
2022-08-02T07:22:04.553Z,20.77
2022-08-02T07:23:04.505Z,20.93
2022-08-02T07:24:04.467Z,20.88
2022-08-02T07:25:04.426Z,21.03
2022-08-02T07:26:05.881Z,21.04
2022-08-02T07:27:12.701Z,20.95
2022-08-02T07:28:04.291Z,21.04
2022-08-02T07:29:04.247Z,21.14
2022-08-02T07:30:04.207Z,21.15
2022-08-02T07:31:04.161Z,21.30
2022-08-02T07:32:04.118Z,21.32
2022-08-02T07:33:04.075Z,21.29
2022-08-02T07:34:04.033Z,21.45
2022-08-02T07:35:07.050Z,21.44
2022-08-02T07:36:04.805Z,21.53
2022-08-02T07:37:03.904Z,21.45
2022-08-02T07:38:03.860Z,21.53
2022-08-02T07:39:03.819Z,21.58
2022-08-02T07:40:07.546Z,21.72
2022-08-02T07:41:03.730Z,21.74
2022-08-02T07:42:03.691Z,21.77
2022-08-02T07:43:04.415Z,21.80
2022-08-02T07:44:03.602Z,21.91
2022-08-02T07:45:03.559Z,21.99
2022-08-02T07:46:03.519Z,22.06
2022-08-02T07:47:03.477Z,22.04
2022-08-02T07:48:03.437Z,22.07
2022-08-02T07:49:03.520Z,22.06
2022-08-02T07:50:03.350Z,22.21
2022-08-02T07:51:03.303Z,22.21
2022-08-02T07:52:03.261Z,22.23
2022-08-02T07:53:03.217Z,22.30
2022-08-02T07:54:04.787Z,22.31
2022-08-02T07:55:03.134Z,22.40
2022-08-02T07:56:03.091Z,22.44
2022-08-02T07:57:03.047Z,22.51
2022-08-02T07:58:03.007Z,22.51
2022-08-02T07:59:02.962Z,22.56
2022-08-02T08:00:02.920Z,22.63
2022-08-02T08:01:02.933Z,22.71
2022-08-02T08:02:02.885Z,22.74
2022-08-02T08:03:02.792Z,22.77
2022-08-02T08:04:02.750Z,22.78
2022-08-02T08:05:02.708Z,22.88
2022-08-02T08:06:02.665Z,22.96
2022-08-02T08:07:02.622Z,22.96
2022-08-02T08:08:02.584Z,22.96
2022-08-02T08:09:02.538Z,23.07
2022-08-02T08:10:02.499Z,23.13
2022-08-02T08:11:02.456Z,23.10
2022-08-02T08:12:02.409Z,23.17
2022-08-02T08:13:02.373Z,23.26
2022-08-02T08:14:02.329Z,23.33
2022-08-02T08:15:02.286Z,23.32
2022-08-02T08:16:02.240Z,23.42
2022-08-02T08:17:02.200Z,23.45
2022-08-02T08:18:02.158Z,23.55
2022-08-02T08:19:02.117Z,23.58
2022-08-02T08:20:02.072Z,23.73
2022-08-02T08:21:02.031Z,23.73
2022-08-02T08:22:01.988Z,23.77
2022-08-02T08:23:01.955Z,23.84
2022-08-02T08:24:01.903Z,23.77
2022-08-02T08:25:01.863Z,23.88
2022-08-02T08:26:01.821Z,23.94
2022-08-02T08:27:01.782Z,23.96
2022-08-02T08:28:01.739Z,24.00
2022-08-02T08:29:01.698Z,24.16
2022-08-02T08:30:01.653Z,24.25
2022-08-02T08:31:01.612Z,24.26
2022-08-02T08:32:01.570Z,24.31
2022-08-02T08:33:01.531Z,24.28
2022-08-02T08:34:01.488Z,24.38
2022-08-02T08:35:01.443Z,24.38
2022-08-02T08:36:02.750Z,24.50
2022-08-02T08:37:01.363Z,24.53
2022-08-02T08:38:05.593Z,24.59
2022-08-02T08:39:01.277Z,24.66
2022-08-02T08:40:01.238Z,24.69
2022-08-02T08:41:01.197Z,24.69
2022-08-02T08:42:01.152Z,24.81
2022-08-02T08:43:01.111Z,24.89
2022-08-02T08:44:01.066Z,24.92
2022-08-02T08:45:01.197Z,24.92
2022-08-02T08:46:00.983Z,25.01
2022-08-02T08:47:00.951Z,24.99
2022-08-02T08:48:00.900Z,24.94
2022-08-02T08:49:00.928Z,25.04
2022-08-02T08:50:00.818Z,25.09
2022-08-02T08:51:00.782Z,25.21
2022-08-02T08:52:00.733Z,25.21
2022-08-02T08:53:00.697Z,25.22
2022-08-02T08:54:00.652Z,25.34
2022-08-02T08:55:00.611Z,25.40
2022-08-02T08:56:00.569Z,25.39
2022-08-02T08:57:00.531Z,25.51
2022-08-02T08:58:00.485Z,25.49
2022-08-02T08:59:00.448Z,25.51
2022-08-02T09:00:00.403Z,25.52
2022-08-02T09:01:00.503Z,25.55
2022-08-02T09:02:00.365Z,25.61
2022-08-02T09:03:00.281Z,25.70
2022-08-02T09:04:00.237Z,25.68
2022-08-02T09:05:00.202Z,25.76
2022-08-02T09:06:00.155Z,25.86
2022-08-02T09:07:00.114Z,25.91
2022-08-02T09:08:00.071Z,25.95
2022-08-02T09:09:00.035Z,26.03
2022-08-02T09:09:59.993Z,26.01
2022-08-02T09:10:59.952Z,26.03
2022-08-02T09:11:59.909Z,26.18
2022-08-02T09:12:59.869Z,26.13
2022-08-02T09:13:59.829Z,26.29
2022-08-02T09:14:59.789Z,26.18
2022-08-02T09:16:00.856Z,26.30
2022-08-02T09:16:59.704Z,26.29
2022-08-02T09:17:59.666Z,26.34
2022-08-02T09:18:59.622Z,26.41
2022-08-02T09:19:59.583Z,26.39
2022-08-02T09:20:59.540Z,26.45
2022-08-02T09:21:59.498Z,26.53
2022-08-02T09:22:59.461Z,26.59
2022-08-02T09:23:59.417Z,26.56
2022-08-02T09:24:59.378Z,26.70
2022-08-02T09:26:00.872Z,26.67
2022-08-02T09:26:59.295Z,26.73
2022-08-02T09:27:59.251Z,26.79
2022-08-02T09:28:59.217Z,26.82
2022-08-02T09:30:12.035Z,26.86
2022-08-02T09:30:59.133Z,26.88
2022-08-02T09:31:59.096Z,26.97
2022-08-02T09:32:59.050Z,26.97
2022-08-02T09:33:59.021Z,27.01
2022-08-02T09:34:58.972Z,27.04
2022-08-02T09:36:06.076Z,27.13
2022-08-02T09:36:58.889Z,27.16
2022-08-02T09:37:58.847Z,27.07
2022-08-02T09:38:58.807Z,27.13
2022-08-02T09:39:59.594Z,27.23
2022-08-02T09:40:58.727Z,27.19
2022-08-02T09:41:58.684Z,27.19
2022-08-02T09:42:58.645Z,27.30
2022-08-02T09:44:04.659Z,27.34
2022-08-02T09:44:58.564Z,27.35
2022-08-02T09:45:58.522Z,27.33
2022-08-02T09:46:58.487Z,27.26
2022-08-02T09:47:58.439Z,27.28
2022-08-02T09:48:58.490Z,27.47
2022-08-02T09:49:58.360Z,27.47
2022-08-02T09:50:58.324Z,27.48
2022-08-02T09:51:58.277Z,27.60
2022-08-02T09:52:58.240Z,27.60
2022-08-02T09:54:07.961Z,27.60
2022-08-02T09:54:58.160Z,27.71
2022-08-02T09:55:58.116Z,27.73
2022-08-02T09:56:58.078Z,27.68
2022-08-02T09:57:58.038Z,27.66
2022-08-02T09:58:58.008Z,27.75
2022-08-02T09:59:57.954Z,27.73
2022-08-02T10:00:57.956Z,27.83
2022-08-02T10:01:58.845Z,27.90
2022-08-02T10:02:57.837Z,27.97
2022-08-02T10:03:57.797Z,27.94
2022-08-02T10:04:57.754Z,27.98
2022-08-02T10:06:02.101Z,28.10
2022-08-02T10:06:57.679Z,28.10
2022-08-02T10:07:57.631Z,28.25
2022-08-02T10:08:57.596Z,28.27
2022-08-02T10:09:57.555Z,28.43
2022-08-02T10:10:57.514Z,28.45
2022-08-02T10:11:57.473Z,28.38
2022-08-02T10:12:57.433Z,28.45
2022-08-02T10:13:57.399Z,28.46
2022-08-02T10:14:57.360Z,28.43
2022-08-02T10:15:57.311Z,28.50
2022-08-02T10:16:57.273Z,28.52
2022-08-02T10:17:57.231Z,28.55
2022-08-02T10:18:57.204Z,28.59
2022-08-02T10:20:00.508Z,28.65
2022-08-02T10:20:57.112Z,28.56
2022-08-02T10:21:57.073Z,28.60
2022-08-02T10:22:57.033Z,28.64
2022-08-02T10:23:56.990Z,28.64
2022-08-02T10:24:56.952Z,28.70
2022-08-02T10:25:56.912Z,28.70
2022-08-02T10:26:56.873Z,28.60
2022-08-02T10:28:05.074Z,28.71
2022-08-02T10:28:56.792Z,28.78
2022-08-02T10:29:56.751Z,28.80
2022-08-02T10:30:56.713Z,28.82
2022-08-02T10:31:56.713Z,28.94
2022-08-02T10:32:56.634Z,28.93
2022-08-02T10:33:56.592Z,29.06
2022-08-02T10:34:56.557Z,29.12
2022-08-02T10:36:07.416Z,29.22
2022-08-02T10:36:56.480Z,29.28
2022-08-02T10:37:56.435Z,29.34
2022-08-02T10:38:56.398Z,29.31
2022-08-02T10:39:56.358Z,29.25
2022-08-02T10:40:56.521Z,29.25
2022-08-02T10:41:56.282Z,29.30
2022-08-02T10:42:56.242Z,29.24
2022-08-02T10:43:56.201Z,29.25
2022-08-02T10:44:56.164Z,29.24
2022-08-02T10:45:56.125Z,29.18
2022-08-02T10:46:56.090Z,29.16
2022-08-02T10:47:56.051Z,29.10
2022-08-02T10:48:56.062Z,29.07
2022-08-02T10:49:56.020Z,29.25
2022-08-02T10:50:55.948Z,29.25
2022-08-02T10:51:55.906Z,29.25
2022-08-02T10:52:55.861Z,29.30
2022-08-02T10:53:55.849Z,29.35
2022-08-02T10:54:56.379Z,29.39
2022-08-02T10:55:55.781Z,29.39
2022-08-02T10:56:55.717Z,29.53
2022-08-02T10:57:55.679Z,29.58
2022-08-02T10:58:55.638Z,29.76
2022-08-02T10:59:55.607Z,29.81
2022-08-02T11:00:55.604Z,29.87
2022-08-02T11:01:55.512Z,29.84
2022-08-02T11:02:55.508Z,29.87
2022-08-02T11:03:55.449Z,29.98
2022-08-02T11:04:55.405Z,30.06
2022-08-02T11:05:55.361Z,29.98
2022-08-02T11:06:55.349Z,30.10
2022-08-02T11:07:55.311Z,30.03
2022-08-02T11:08:55.259Z,29.99
2022-08-02T11:09:55.242Z,29.90
2022-08-02T11:10:55.187Z,29.84
2022-08-02T11:11:55.155Z,29.89
2022-08-02T11:12:55.137Z,29.96
2022-08-02T11:13:55.081Z,29.95
2022-08-02T11:14:55.221Z,30.02
2022-08-02T11:15:55.034Z,30.13
2022-08-02T11:16:54.950Z,30.06
2022-08-02T11:17:54.936Z,30.06
2022-08-02T11:18:54.873Z,30.08
2022-08-02T11:19:54.836Z,30.14
2022-08-02T11:20:54.925Z,30.20
2022-08-02T11:21:54.821Z,30.16
2022-08-02T11:22:54.742Z,30.33
2022-08-02T11:23:54.682Z,30.29
2022-08-02T11:24:54.678Z,30.51
2022-08-02T11:26:03.508Z,30.58
2022-08-02T11:26:54.616Z,30.67
2022-08-02T11:27:54.579Z,30.63
2022-08-02T11:28:54.544Z,30.74
2022-08-02T11:29:54.533Z,30.77
2022-08-02T11:30:54.435Z,30.77
2022-08-02T11:31:54.389Z,30.93
2022-08-02T11:32:54.389Z,31.00
2022-08-02T11:33:54.863Z,31.08
2022-08-02T11:34:54.314Z,31.20
2022-08-02T11:35:54.276Z,31.14
2022-08-02T11:36:54.228Z,31.29
2022-08-02T11:37:54.168Z,31.39
2022-08-02T11:38:54.172Z,31.47
2022-08-02T11:39:54.091Z,31.48
2022-08-02T11:40:57.400Z,31.59
2022-08-02T11:41:54.057Z,31.55
2022-08-02T11:42:54.321Z,31.70
2022-08-02T11:43:53.963Z,31.70
2022-08-02T11:44:54.111Z,31.82
2022-08-02T11:45:53.867Z,31.86
2022-08-02T11:46:53.826Z,31.93
2022-08-02T11:47:54.311Z,32.02
2022-08-02T11:48:53.859Z,32.16
2022-08-02T11:49:53.725Z,32.17
2022-08-02T11:50:53.885Z,32.19
2022-08-02T11:51:55.133Z,32.23
2022-08-02T11:52:53.603Z,32.26
2022-08-02T11:54:54.154Z,32.09
2022-08-02T11:55:53.493Z,32.02
2022-08-02T11:56:53.453Z,32.05
2022-08-02T11:58:01.750Z,31.89
2022-08-02T11:58:53.380Z,31.97
2022-08-02T11:59:53.341Z,31.85
2022-08-02T12:00:53.311Z,31.90
2022-08-02T12:01:53.268Z,31.86
2022-08-02T12:02:53.291Z,31.78
2022-08-02T12:03:53.192Z,31.86
2022-08-02T12:04:53.156Z,31.86
2022-08-02T12:06:05.470Z,31.85
2022-08-02T12:06:53.081Z,31.69
2022-08-02T12:07:53.040Z,31.70
2022-08-02T12:08:54.531Z,31.72
2022-08-02T12:09:52.964Z,31.67
2022-08-02T12:10:52.936Z,31.54
2022-08-02T12:11:52.892Z,31.51
2022-08-02T12:12:53.568Z,31.45
2022-08-02T12:13:56.579Z,31.42
2022-08-02T12:14:52.773Z,31.48
2022-08-02T12:15:52.735Z,31.51
2022-08-02T12:16:52.697Z,31.62
2022-08-02T12:17:52.659Z,31.59
2022-08-02T12:18:52.620Z,31.69
2022-08-02T12:19:52.581Z,31.70
2022-08-02T12:20:52.548Z,31.81
2022-08-02T12:21:52.506Z,31.87
2022-08-02T12:22:52.471Z,32.09
2022-08-02T12:24:00.377Z,32.23
2022-08-02T12:24:52.395Z,32.30
2022-08-02T12:25:52.353Z,32.42
2022-08-02T12:26:52.318Z,32.51
2022-08-02T12:27:53.421Z,32.57
2022-08-02T12:28:52.236Z,32.66
2022-08-02T12:29:58.290Z,32.76
2022-08-02T12:30:52.165Z,32.86
2022-08-02T12:31:56.812Z,32.97
2022-08-02T12:32:52.084Z,33.09
2022-08-02T12:33:52.050Z,33.33
2022-08-02T12:34:52.010Z,33.57
2022-08-02T12:35:51.970Z,33.75
2022-08-02T12:36:51.940Z,33.88
2022-08-02T12:37:51.894Z,33.92
2022-08-02T12:38:51.857Z,34.06
2022-08-02T12:39:51.819Z,34.13
2022-08-02T12:40:51.782Z,34.32
2022-08-02T12:41:51.744Z,34.38
2022-08-02T12:42:51.708Z,34.58
2022-08-02T12:43:51.666Z,34.78
2022-08-02T12:44:51.636Z,34.82
2022-08-02T12:45:51.593Z,34.91
2022-08-02T12:46:51.559Z,35.08
2022-08-02T12:47:51.517Z,35.25
2022-08-02T12:49:15.879Z,35.37
2022-08-02T12:49:51.504Z,35.47
2022-08-02T12:50:51.407Z,35.63
2022-08-02T12:51:57.659Z,35.78
2022-08-02T12:52:51.333Z,35.86
2022-08-02T12:53:59.905Z,35.97
2022-08-02T12:54:51.258Z,35.86
2022-08-02T12:55:59.237Z,35.75
2022-08-02T12:56:51.184Z,35.59
2022-08-02T12:57:51.145Z,35.41
2022-08-02T12:58:51.309Z,35.27